Alt de San Felipe, Puerto Rico
Current Conditions -  °F | °C
As of 12:50 AM on Monday 22 Dec 2014 (Local Time) from TJBQ Reporting Station
Clear Clear  
Wind Chill: 70°   Ceiling: Unl
Heat Index: 70°   Visibility: 10mi
Dew Point: 63°   Wind: 7mph
Humidity: 78%   Direction: 110°ESE
Pressure: 30.08"   Gusts: NA
Location:  18.4739°N, 66.7295°W
Report Text: TJBQ 220450Z 11006KT 10SM SKC 21/17 A3008 RMK RWY 8 ATIS N
Loading
Personal Weather Stations






























Interactive Weather Map New forecast layout! Learn more

10-Day Weather Forecast

Advertisements
Track Severe Weather on mobile